createdAt,value
2022-08-22T00:02:51.228Z,87281.22
2022-08-22T00:03:01.922Z,87315.59
2022-08-22T00:05:03.929Z,87265.28
2022-08-22T00:07:49.483Z,87273.22
2022-08-22T00:18:05.682Z,87264.72
2022-08-22T00:20:57.689Z,87270.78
2022-08-22T00:37:06.728Z,87281.63
2022-08-22T00:40:03.842Z,87285.00
2022-08-22T00:42:48.524Z,87277.06
2022-08-22T00:48:47.116Z,87278.66
2022-08-22T00:55:17.280Z,87282.94
2022-08-22T00:58:11.652Z,87292.41
2022-08-22T01:00:52.736Z,87290.88
2022-08-22T01:03:44.461Z,87290.53
2022-08-22T01:07:13.427Z,87280.75
2022-08-22T01:10:17.845Z,87284.97
2022-08-22T01:13:03.884Z,87287.22
2022-08-22T01:15:36.525Z,87285.75
2022-08-22T01:18:17.247Z,87282.31
2022-08-22T01:21:20.852Z,87275.16
2022-08-22T01:24:33.920Z,87275.59
2022-08-22T01:31:35.185Z,87275.31
2022-08-22T01:34:36.981Z,87270.78
2022-08-22T01:41:20.852Z,87262.53
2022-08-22T01:44:16.993Z,87261.03
2022-08-22T01:47:06.413Z,87263.31
2022-08-22T01:49:39.825Z,87261.03
2022-08-22T01:52:13.241Z,87262.16
2022-08-22T01:54:43.631Z,87262.50
2022-08-22T01:57:29.732Z,87262.94
2022-08-22T02:00:01.845Z,87255.78
2022-08-22T02:06:23.335Z,87253.16
2022-08-22T02:09:06.887Z,87247.88
2022-08-22T02:11:48.263Z,87253.19
2022-08-22T02:14:27.605Z,87250.56
2022-08-22T02:21:24.267Z,87252.13
2022-08-22T02:24:00.083Z,87247.59
2022-08-22T02:26:37.519Z,87237.34
2022-08-22T02:29:17.263Z,87245.28
2022-08-22T02:31:55.592Z,87243.78
2022-08-22T02:34:29.250Z,87239.66
2022-08-22T02:40:43.236Z,87244.25
2022-08-22T02:43:25.690Z,87245.75
2022-08-22T02:50:21.929Z,87246.59
2022-08-22T02:52:52.252Z,87248.47
2022-08-22T02:55:43.798Z,87247.72
2022-08-22T02:58:25.234Z,87242.47
2022-08-22T03:01:17.012Z,87247.00
2022-08-22T03:03:47.743Z,87243.63
2022-08-22T03:10:11.251Z,87249.69
2022-08-22T03:13:14.354Z,87244.78
2022-08-22T03:16:31.085Z,87238.75
2022-08-22T03:19:31.328Z,87240.66
2022-08-22T03:25:55.905Z,87242.22
2022-08-22T03:28:58.952Z,87238.81
2022-08-22T03:31:29.971Z,87245.59
2022-08-22T03:34:18.592Z,87242.22
2022-08-22T03:37:04.183Z,87239.56
2022-08-22T03:40:01.594Z,87247.50
2022-08-22T03:42:50.179Z,87250.16
2022-08-22T03:46:03.985Z,87247.88
2022-08-22T03:49:13.083Z,87250.53
2022-08-22T03:52:13.417Z,87249.41
2022-08-22T03:58:40.478Z,87245.69
2022-08-22T04:01:25.791Z,87250.56
2022-08-22T04:04:11.380Z,87252.09
2022-08-22T04:06:48.382Z,87253.63
2022-08-22T04:09:42.196Z,87254.75
2022-08-22T04:16:04.677Z,87254.00
2022-08-22T04:22:32.827Z,87265.34
2022-08-22T04:25:26.052Z,87267.25
2022-08-22T04:28:04.674Z,87265.72
2022-08-22T04:30:45.785Z,87260.44
2022-08-22T04:33:39.454Z,87264.59
2022-08-22T04:40:15.583Z,87263.44
2022-08-22T04:43:06.843Z,87264.94
2022-08-22T04:49:40.710Z,87275.16
2022-08-22T04:52:46.783Z,87273.66
2022-08-22T04:55:36.608Z,87269.09
2022-08-22T04:58:46.297Z,87273.66
2022-08-22T05:01:22.624Z,87268.75
2022-08-22T05:07:55.474Z,87276.28
2022-08-22T05:10:43.680Z,87282.69
2022-08-22T05:13:23.477Z,87280.03
2022-08-22T05:16:15.282Z,87280.03
2022-08-22T05:18:53.708Z,87282.69
2022-08-22T05:21:40.553Z,87280.06
2022-08-22T05:27:56.430Z,87277.41
2022-08-22T05:37:46.134Z,87277.03
2022-08-22T05:48:04.921Z,87265.34
2022-08-22T05:50:56.929Z,87261.19
2022-08-22T05:57:53.488Z,87250.25
2022-08-22T06:00:28.449Z,87253.63
2022-08-22T06:03:34.870Z,87244.53
2022-08-22T06:06:14.697Z,87242.25
2022-08-22T06:13:01.303Z,87235.69
2022-08-22T06:16:07.175Z,87234.47
2022-08-22T06:18:40.323Z,87231.38
2022-08-22T06:21:44.468Z,87224.88
2022-08-22T06:24:19.534Z,87226.66
2022-08-22T06:26:50.092Z,87217.09
2022-08-22T06:33:44.289Z,87223.31
2022-08-22T06:36:20.652Z,87221.63
2022-08-22T06:42:32.708Z,87213.78
2022-08-22T06:45:17.936Z,87205.31
2022-08-22T06:51:39.064Z,87215.66
2022-08-22T06:54:15.203Z,87217.00
2022-08-22T07:00:36.687Z,87211.00
2022-08-22T07:03:08.822Z,87213.09
2022-08-22T07:05:39.303Z,87221.63
2022-08-22T07:08:13.847Z,87216.56
2022-08-22T07:10:44.332Z,87206.53
2022-08-22T07:13:19.101Z,87201.84
2022-08-22T07:16:08.678Z,87203.19
2022-08-22T07:18:48.201Z,87198.88
2022-08-22T07:21:32.584Z,87195.69
2022-08-22T07:24:04.119Z,87197.41
2022-08-22T07:26:49.800Z,87196.13
2022-08-22T07:29:40.115Z,87191.50
2022-08-22T07:32:26.415Z,87191.00
2022-08-22T07:35:09.748Z,87188.47
2022-08-22T07:38:04.678Z,87179.94
2022-08-22T07:41:01.158Z,87173.41
2022-08-22T07:43:52.213Z,87185.78
2022-08-22T07:46:25.353Z,87188.66
2022-08-22T07:49:09.521Z,87178.97
2022-08-22T07:51:47.269Z,87178.00
2022-08-22T07:54:27.221Z,87185.50
2022-08-22T07:57:03.235Z,87176.16
2022-08-22T07:59:46.015Z,87182.00
2022-08-22T08:02:20.927Z,87179.84
2022-08-22T08:04:54.601Z,87172.47
2022-08-22T08:07:26.687Z,87177.31
2022-08-22T08:10:13.089Z,87180.50
2022-08-22T08:13:02.034Z,87184.59
2022-08-22T08:15:32.943Z,87179.84
2022-08-22T08:18:12.511Z,87180.44
2022-08-22T08:20:40.207Z,87183.38
2022-08-22T08:23:10.750Z,87180.47
2022-08-22T08:26:01.803Z,87180.63
2022-08-22T08:28:30.192Z,87178.13
2022-08-22T08:31:09.688Z,87174.13
2022-08-22T08:33:41.106Z,87166.47
2022-08-22T08:36:17.102Z,87168.41
2022-08-22T08:39:02.878Z,87169.00
2022-08-22T08:41:45.196Z,87167.31
2022-08-22T08:44:43.632Z,87170.22
2022-08-22T08:47:50.856Z,87170.22
2022-08-22T08:50:51.607Z,87167.22
2022-08-22T08:53:43.221Z,87165.03
2022-08-22T08:56:48.750Z,87166.00
2022-08-22T08:59:36.336Z,87156.19
2022-08-22T09:02:24.897Z,87153.66
2022-08-22T09:05:16.784Z,87153.34
2022-08-22T09:08:03.668Z,87158.19
2022-08-22T09:11:00.863Z,87160.22
2022-08-22T09:13:54.907Z,87152.75
2022-08-22T09:16:29.008Z,87152.13
2022-08-22T09:18:56.519Z,87150.00
2022-08-22T09:21:45.995Z,87145.13
2022-08-22T09:24:51.121Z,87154.63
2022-08-22T09:27:37.107Z,87147.56
2022-08-22T09:30:13.362Z,87145.97
2022-08-22T09:33:16.253Z,87143.50
2022-08-22T09:36:12.433Z,87148.75
2022-08-22T09:38:46.691Z,87146.81
2022-08-22T09:41:41.347Z,87148.63
2022-08-22T09:44:50.199Z,87140.81
2022-08-22T09:47:33.725Z,87145.53
2022-08-22T09:50:17.618Z,87144.63
2022-08-22T09:52:57.451Z,87137.47
2022-08-22T09:55:50.160Z,87131.25
2022-08-22T09:58:49.303Z,87129.81
2022-08-22T10:01:32.831Z,87128.03
2022-08-22T10:04:34.432Z,87118.16
2022-08-22T10:07:31.260Z,87118.63
2022-08-22T10:10:04.822Z,87119.91
2022-08-22T10:12:42.678Z,87118.03
2022-08-22T10:15:40.138Z,87120.03
2022-08-22T10:18:26.164Z,87117.13
2022-08-22T10:21:10.580Z,87111.06
2022-08-22T10:23:57.668Z,87112.94
2022-08-22T10:26:46.760Z,87117.78
2022-08-22T10:29:51.514Z,87114.13
2022-08-22T10:32:19.862Z,87114.59
2022-08-22T10:35:20.149Z,87126.38
2022-08-22T10:38:03.165Z,87112.91
2022-08-22T10:41:23.283Z,87116.25
2022-08-22T10:43:56.588Z,87104.59
2022-08-22T10:46:36.720Z,87105.38
2022-08-22T10:49:46.994Z,87101.53
2022-08-22T10:52:49.203Z,87096.94
2022-08-22T10:55:28.685Z,87094.13
2022-08-22T10:58:23.377Z,87092.47
2022-08-22T11:01:38.205Z,87086.31
2022-08-22T11:04:12.100Z,87096.56
2022-08-22T11:07:17.721Z,87094.69
2022-08-22T11:10:03.466Z,87099.59
2022-08-22T11:12:44.483Z,87090.31
2022-08-22T11:15:28.376Z,87093.09
2022-08-22T11:18:57.811Z,87100.59
2022-08-22T11:21:58.055Z,87104.28
2022-08-22T11:24:35.385Z,87097.81
2022-08-22T11:27:12.960Z,87093.34
2022-08-22T11:30:19.113Z,87083.53
2022-08-22T11:33:16.949Z,87095.47
2022-08-22T11:36:04.876Z,87091.03
2022-08-22T11:38:54.181Z,87085.38
2022-08-22T11:41:37.096Z,87084.72
2022-08-22T11:44:21.519Z,87084.78
2022-08-22T11:46:53.683Z,87083.03
2022-08-22T11:49:37.283Z,87080.00
2022-08-22T11:52:53.218Z,87083.69
2022-08-22T11:55:33.194Z,87074.44
2022-08-22T11:59:14.814Z,87075.97
2022-08-22T12:01:52.513Z,87078.84
2022-08-22T12:04:51.149Z,87075.56
2022-08-22T12:07:28.802Z,87064.53
2022-08-22T12:10:04.528Z,87059.56
2022-08-22T12:12:45.021Z,87058.53
2022-08-22T12:15:33.362Z,87062.50
2022-08-22T12:18:06.527Z,87058.78
2022-08-22T12:21:09.157Z,87061.84
2022-08-22T12:24:19.324Z,87058.50
2022-08-22T12:27:09.078Z,87056.19
2022-08-22T12:30:02.331Z,87055.25
2022-08-22T12:32:34.294Z,87060.72
2022-08-22T12:35:20.504Z,87056.16
2022-08-22T12:38:28.149Z,87057.63
2022-08-22T12:41:35.309Z,87054.03
2022-08-22T12:44:34.269Z,87056.69
2022-08-22T12:47:17.286Z,87054.66
2022-08-22T12:49:52.531Z,87055.28
2022-08-22T12:52:44.772Z,87063.19
2022-08-22T12:55:30.412Z,87057.88
2022-08-22T12:58:17.927Z,87054.25
2022-08-22T13:00:48.565Z,87056.50
2022-08-22T13:03:37.028Z,87046.53
2022-08-22T13:06:36.149Z,87040.88
2022-08-22T13:09:18.854Z,87045.25
2022-08-22T13:11:54.418Z,87050.22
2022-08-22T13:14:30.349Z,87039.66
2022-08-22T13:17:23.628Z,87041.13
2022-08-22T13:20:06.236Z,87041.22
2022-08-22T13:22:45.331Z,87038.16
2022-08-22T13:25:25.924Z,87034.81
2022-08-22T13:28:11.896Z,87034.38
2022-08-22T13:30:43.712Z,87040.28
2022-08-22T13:33:35.560Z,87033.63
2022-08-22T13:36:12.958Z,87039.03
2022-08-22T13:39:07.375Z,87032.03
2022-08-22T13:41:49.785Z,87041.22
2022-08-22T13:44:24.757Z,87030.00
2022-08-22T13:47:13.604Z,87033.25
2022-08-22T13:49:48.989Z,87035.34
2022-08-22T13:52:37.979Z,87039.06
2022-08-22T13:55:23.303Z,87032.31
2022-08-22T13:58:39.266Z,87040.81
2022-08-22T14:01:35.823Z,87043.38
2022-08-22T14:04:36.380Z,87038.00
2022-08-22T14:07:03.634Z,87042.53
2022-08-22T14:09:45.310Z,87025.53
2022-08-22T14:12:57.519Z,87041.25
2022-08-22T14:15:44.598Z,87038.72
2022-08-22T14:18:30.399Z,87038.91
2022-08-22T14:21:24.944Z,87034.56
2022-08-22T14:24:02.379Z,87033.88
2022-08-22T14:26:47.566Z,87034.78
2022-08-22T14:29:20.028Z,87033.81
2022-08-22T14:32:23.316Z,87027.63
2022-08-22T14:35:40.960Z,87030.00
2022-08-22T14:38:30.423Z,87025.03
2022-08-22T14:41:25.045Z,87033.25
2022-08-22T14:44:17.980Z,87027.84
2022-08-22T14:47:08.345Z,87016.25
2022-08-22T14:50:00.163Z,87037.13
2022-08-22T14:52:46.081Z,87030.69
2022-08-22T14:55:25.456Z,87029.56
2022-08-22T14:58:06.051Z,87030.59
2022-08-22T15:00:40.812Z,87019.56
2022-08-22T15:03:09.901Z,87022.78
2022-08-22T15:05:56.131Z,87027.25
2022-08-22T15:08:31.298Z,87028.50
2022-08-22T15:11:19.431Z,87021.59
2022-08-22T15:14:13.445Z,87019.63
2022-08-22T15:16:59.802Z,87024.59
2022-08-22T15:19:33.147Z,87027.31
2022-08-22T15:22:25.756Z,87027.56
2022-08-22T15:25:13.366Z,87020.63
2022-08-22T15:28:14.173Z,87017.41
2022-08-22T15:30:45.916Z,87015.66
2022-08-22T15:33:22.771Z,87018.88
2022-08-22T15:35:54.240Z,87023.81
2022-08-22T15:38:51.661Z,87018.34
2022-08-22T15:41:22.269Z,87012.88
2022-08-22T15:44:00.898Z,87025.47
2022-08-22T15:47:23.681Z,87024.00
2022-08-22T15:49:59.592Z,87033.41
2022-08-22T15:52:32.986Z,87027.25
2022-08-22T15:58:27.480Z,87027.06
2022-08-22T16:01:20.827Z,87015.91
2022-08-22T16:04:15.959Z,87025.56
2022-08-22T16:06:57.035Z,87027.06
2022-08-22T16:09:46.104Z,87020.09
2022-08-22T16:12:33.265Z,87022.81
2022-08-22T16:15:04.927Z,87026.25
2022-08-22T16:17:39.961Z,87026.66
2022-08-22T16:20:36.624Z,87014.94
2022-08-22T16:23:03.931Z,87022.94
2022-08-22T16:25:47.416Z,87029.19
2022-08-22T16:28:57.454Z,87028.50
2022-08-22T16:31:40.440Z,87024.97
2022-08-22T16:34:16.720Z,87029.50
2022-08-22T16:37:08.905Z,87031.59
2022-08-22T16:39:51.140Z,87036.00
2022-08-22T16:42:18.673Z,87048.22
2022-08-22T16:45:05.339Z,87047.13
2022-08-22T16:47:32.742Z,87048.56
2022-08-22T16:50:15.977Z,87051.28
2022-08-22T16:53:04.749Z,87057.75
2022-08-22T16:55:31.969Z,87051.91
2022-08-22T16:58:44.940Z,87054.09
2022-08-22T17:01:28.563Z,87055.16
2022-08-22T17:04:38.951Z,87063.16
2022-08-22T17:07:44.069Z,87067.78
2022-08-22T17:11:01.230Z,87068.25
2022-08-22T17:13:44.670Z,87077.97
2022-08-22T17:16:45.466Z,87077.91
2022-08-22T17:19:40.451Z,87084.28
2022-08-22T17:22:42.738Z,87094.84
2022-08-22T17:25:47.970Z,87085.81
2022-08-22T17:28:48.481Z,87084.69
2022-08-22T17:31:47.423Z,87087.41
2022-08-22T17:34:47.380Z,87093.31
2022-08-22T17:37:49.089Z,87100.03
2022-08-22T17:40:53.199Z,87105.16
2022-08-22T17:43:49.754Z,87102.78
2022-08-22T17:46:40.912Z,87101.44
2022-08-22T17:49:42.721Z,87106.34
2022-08-22T17:52:54.307Z,87109.63
2022-08-22T17:55:48.965Z,87111.09
2022-08-22T17:58:37.380Z,87115.72
2022-08-22T18:01:33.908Z,87127.03
2022-08-22T18:04:05.241Z,87131.03
2022-08-22T18:06:47.002Z,87144.44
2022-08-22T18:09:47.030Z,87141.56
2022-08-22T18:12:40.195Z,87141.03
2022-08-22T18:15:20.331Z,87143.19
2022-08-22T18:18:13.686Z,87152.66
2022-08-22T18:20:55.540Z,87160.47
2022-08-22T18:23:46.265Z,87161.00
2022-08-22T18:26:53.626Z,87163.09
2022-08-22T18:29:42.473Z,87163.88
2022-08-22T18:32:21.247Z,87164.38
2022-08-22T18:35:16.991Z,87175.44
2022-08-22T18:38:19.631Z,87178.91
2022-08-22T18:41:19.740Z,87187.84
2022-08-22T18:43:49.717Z,87186.66
2022-08-22T18:46:42.459Z,87190.53
2022-08-22T18:49:29.836Z,87200.50
2022-08-22T18:52:06.312Z,87193.88
2022-08-22T18:54:52.401Z,87199.84
2022-08-22T18:57:41.523Z,87197.06
2022-08-22T19:01:02.202Z,87213.88
2022-08-22T19:04:12.969Z,87211.59
2022-08-22T19:06:45.773Z,87217.97
2022-08-22T19:09:57.761Z,87221.47
2022-08-22T19:12:41.020Z,87225.09
2022-08-22T19:15:29.185Z,87222.72
2022-08-22T19:18:15.374Z,87232.50
2022-08-22T19:20:43.014Z,87235.03
2022-08-22T19:23:35.168Z,87236.41
2022-08-22T19:26:31.935Z,87234.31
2022-08-22T19:29:14.348Z,87237.50
2022-08-22T19:31:46.888Z,87242.16
2022-08-22T19:34:17.055Z,87246.97
2022-08-22T19:36:45.783Z,87254.25
2022-08-22T19:39:42.535Z,87253.69
2022-08-22T19:42:20.788Z,87254.63
2022-08-22T19:45:07.076Z,87255.88
2022-08-22T19:47:40.196Z,87257.94
2022-08-22T19:50:16.538Z,87263.44
2022-08-22T19:52:57.615Z,87260.19
2022-08-22T19:55:34.105Z,87266.75
2022-08-22T19:58:32.711Z,87268.16
2022-08-22T20:01:41.911Z,87270.41
2022-08-22T20:04:36.083Z,87271.72
2022-08-22T20:07:32.227Z,87271.47
2022-08-22T20:10:25.784Z,87269.34
2022-08-22T20:13:10.718Z,87275.91
2022-08-22T20:16:16.181Z,87274.13
2022-08-22T20:19:07.673Z,87273.94
2022-08-22T20:21:59.245Z,87283.09
2022-08-22T20:24:45.545Z,87270.69
2022-08-22T20:27:39.547Z,87281.47
2022-08-22T20:30:25.605Z,87282.69
2022-08-22T20:32:59.105Z,87285.06
2022-08-22T20:35:47.387Z,87278.66
2022-08-22T20:38:20.263Z,87270.13
2022-08-22T20:41:32.647Z,87271.97
2022-08-22T20:44:29.725Z,87273.59
2022-08-22T20:47:09.302Z,87272.16
2022-08-22T20:49:53.202Z,87274.91
2022-08-22T20:52:54.835Z,87277.25
2022-08-22T20:55:31.218Z,87270.47
2022-08-22T20:58:26.434Z,87276.97
2022-08-22T21:00:57.588Z,87274.44
2022-08-22T21:03:49.417Z,87278.69
2022-08-22T21:06:31.822Z,87284.50
2022-08-22T21:09:17.703Z,87289.47
2022-08-22T21:11:51.372Z,87280.41
2022-08-22T21:14:25.744Z,87286.16
2022-08-22T21:16:53.698Z,87280.91
2022-08-22T21:19:29.435Z,87288.13
2022-08-22T21:22:16.544Z,87291.72
2022-08-22T21:24:45.214Z,87284.19
2022-08-22T21:27:22.916Z,87278.63
2022-08-22T21:29:50.170Z,87275.63
2022-08-22T21:32:42.356Z,87284.00
2022-08-22T21:35:24.922Z,87284.47
2022-08-22T21:37:52.893Z,87286.78
2022-08-22T21:40:37.990Z,87290.66
2022-08-22T21:43:09.170Z,87278.50
2022-08-22T21:45:44.291Z,87286.22
2022-08-22T21:48:34.397Z,87276.88
2022-08-22T21:51:22.271Z,87278.41
2022-08-22T21:53:56.059Z,87289.44
2022-08-22T21:56:37.054Z,87292.13
2022-08-22T21:59:51.541Z,87289.19
2022-08-22T22:02:37.648Z,87294.97
2022-08-22T22:05:17.642Z,87295.38
2022-08-22T22:07:47.741Z,87301.09
2022-08-22T22:10:19.245Z,87293.56
2022-08-22T22:12:49.335Z,87296.72
2022-08-22T22:15:21.768Z,87291.06
2022-08-22T22:17:49.353Z,87287.38
2022-08-22T22:20:19.769Z,87291.63
2022-08-22T22:22:47.279Z,87296.56
2022-08-22T22:25:38.909Z,87289.44
2022-08-22T22:28:15.537Z,87293.34
2022-08-22T22:30:45.368Z,87296.75
2022-08-22T22:33:12.776Z,87289.50
2022-08-22T22:35:41.249Z,87284.31
2022-08-22T22:38:09.742Z,87299.50
2022-08-22T22:40:37.406Z,87299.13
2022-08-22T22:43:05.326Z,87296.50
2022-08-22T22:45:32.495Z,87286.69
2022-08-22T22:47:59.809Z,87287.78
2022-08-22T22:50:27.161Z,87295.44
2022-08-22T22:52:54.385Z,87288.69
2022-08-22T22:55:24.352Z,87290.19
2022-08-22T22:57:58.675Z,87294.09
2022-08-22T23:00:33.495Z,87287.69
2022-08-22T23:03:04.930Z,87295.63
2022-08-22T23:05:33.476Z,87299.00
2022-08-22T23:08:01.680Z,87286.50
2022-08-22T23:10:31.295Z,87296.34
2022-08-22T23:12:59.527Z,87289.91
2022-08-22T23:15:27.715Z,87288.09
2022-08-22T23:17:55.003Z,87290.75
2022-08-22T23:20:22.726Z,87288.16
2022-08-22T23:22:49.988Z,87302.25
2022-08-22T23:25:17.363Z,87292.78
2022-08-22T23:27:44.609Z,87295.78
2022-08-22T23:30:15.943Z,87292.78
2022-08-22T23:32:43.134Z,87298.47
2022-08-22T23:35:10.416Z,87293.53
2022-08-22T23:37:37.660Z,87292.78
2022-08-22T23:40:06.536Z,87295.41
2022-08-22T23:42:33.985Z,87288.63
2022-08-22T23:45:01.236Z,87289.44
2022-08-22T23:47:28.495Z,87283.00
2022-08-22T23:49:55.931Z,87290.16
2022-08-22T23:52:23.159Z,87301.50
2022-08-22T23:54:54.575Z,87296.63
2022-08-22T23:57:26.358Z,87300.75
2022-08-22T23:59:58.353Z,87300.44
